Ocean Exporter — VRXJ4 — position and weather

sailwx.info

Track history (hours):
 
Tides and Currents Weather Stations Pressure Air Temp Water Temp Dewpoint Dewpoint Depression Visibility Wind Speed Wind Dir Waves Ship Positions

Ocean Exporter

Last reported at 2016-Dec-26 05:04 UTC. Time now 2017-Jan-22 03:43 UTC.
Position N 29°55' E 122°13'.
Warning: this ship's position is 26 days out of date.

Length 169 m; draft 5.5 m.

Type: Cargo ship. MMSI: 477980000.

Date/timePositionNaut miles runAvg speedWind from/ knotsBaromVisibWave heightAir tempDewpointWater temp
2016-Dec-26 05:04N 29°55' E 122°13'0 0.0
2016-Dec-26 04:28N 29°55' E 122°13'0 0.0
2016-Dec-26 03:31N 29°55' E 122°13'6 6.2
2016-Dec-26 02:33N 29°49' E 122°14'10 9.6
2016-Dec-26 01:33N 29°45' E 122°24'3 2.7
2016-Dec-26 00:30N 29°46' E 122°27'4 4.3
2016-Dec-25 23:33N 29°46' E 122°32'2 2.4
2016-Dec-25 22:33N 29°46' E 122°35'0 0.0
2016-Dec-25 18:15N 29°46' E 122°35'0 0.0
2016-Dec-25 17:33N 29°46' E 122°35'0 0.0
2016-Dec-25 16:33N 29°46' E 122°35'0 0.0
2016-Dec-25 15:09N 29°46' E 122°35'0 0.0
2016-Dec-25 13:33N 29°46' E 122°35'2 1.9
2016-Dec-25 12:33N 29°46' E 122°37'  
Track history (hours):
 
Tides and Currents Weather Stations Pressure Air Temp Water Temp Dewpoint Dewpoint Depression Visibility Wind Speed Wind Dir Waves Ship Positions

Ocean Exporter

Last reported at 2016-Dec-26 05:04 UTC. Time now 2017-Jan-22 03:43 UTC.
Position N 29°55' E 122°13'.
Warning: this ship's position is 26 days out of date.

Length 169 m; draft 5.5 m.

Type: Cargo ship. MMSI: 477980000.

Date/timePositionNaut miles runAvg speedWind from/ knotsBaromVisibWave heightAir tempDewpointWater temp
2016-Dec-26 05:04N 29°55' E 122°13'0 0.0
2016-Dec-26 04:28N 29°55' E 122°13'0 0.0
2016-Dec-26 03:31N 29°55' E 122°13'6 6.2
2016-Dec-26 02:33N 29°49' E 122°14'10 9.6
2016-Dec-26 01:33N 29°45' E 122°24'3 2.7
2016-Dec-26 00:30N 29°46' E 122°27'4 4.3
2016-Dec-25 23:33N 29°46' E 122°32'2 2.4
2016-Dec-25 22:33N 29°46' E 122°35'0 0.0
2016-Dec-25 18:15N 29°46' E 122°35'0 0.0
2016-Dec-25 17:33N 29°46' E 122°35'0 0.0
2016-Dec-25 16:33N 29°46' E 122°35'0 0.0
2016-Dec-25 15:09N 29°46' E 122°35'0 0.0
2016-Dec-25 13:33N 29°46' E 122°35'2 1.9
2016-Dec-25 12:33N 29°46' E 122°37'  

Dump ship's entire track history